createdAt,value
2024-04-25T00:00:24.796Z,33.92
2024-04-25T00:01:28.181Z,33.99
2024-04-25T00:02:31.483Z,33.92
2024-04-25T00:03:34.860Z,33.96
2024-04-25T00:04:38.343Z,33.93
2024-04-25T00:05:41.873Z,33.95
2024-04-25T00:06:45.024Z,33.94
2024-04-25T00:07:48.165Z,33.97
2024-04-25T00:08:51.403Z,33.95
2024-04-25T00:09:54.719Z,33.95
2024-04-25T00:10:58.020Z,33.99
2024-04-25T00:12:01.587Z,33.97
2024-04-25T00:13:05.042Z,33.95
2024-04-25T00:14:08.543Z,33.97
2024-04-25T00:15:11.901Z,33.96
2024-04-25T00:16:15.364Z,33.96
2024-04-25T00:17:18.666Z,33.95
2024-04-25T00:18:22.013Z,33.96
2024-04-25T00:19:25.361Z,33.96
2024-04-25T00:20:28.726Z,33.93
2024-04-25T00:21:32.079Z,33.96
2024-04-25T00:22:41.310Z,33.97
2024-04-25T00:23:44.418Z,33.93
2024-04-25T00:24:47.608Z,33.89
2024-04-25T00:25:50.880Z,33.93
2024-04-25T00:26:54.082Z,33.95
2024-04-25T00:27:57.329Z,33.94
2024-04-25T00:29:03.631Z,33.91
2024-04-25T00:30:06.882Z,33.9
2024-04-25T00:31:10.140Z,33.93
2024-04-25T00:32:13.442Z,33.91
2024-04-25T00:33:16.899Z,33.95
2024-04-25T00:34:20.339Z,33.94
2024-04-25T00:35:23.804Z,33.96
2024-04-25T00:36:28.738Z,33.95
2024-04-25T00:37:31.980Z,34
2024-04-25T00:38:35.352Z,33.94
2024-04-25T00:39:40.947Z,33.97
2024-04-25T00:40:46.076Z,33.93
2024-04-25T00:41:49.327Z,33.92
2024-04-25T00:42:52.596Z,33.93
2024-04-25T00:43:55.833Z,33.92
2024-04-25T00:44:59.130Z,33.95
2024-04-25T00:46:02.456Z,33.95
2024-04-25T00:47:05.774Z,33.94
2024-04-25T00:48:09.491Z,33.93
2024-04-25T00:49:14.656Z,33.94
2024-04-25T00:50:17.898Z,33.93
2024-04-25T00:51:21.117Z,33.97
2024-04-25T00:52:24.301Z,33.96
2024-04-25T00:53:27.624Z,33.99
2024-04-25T00:54:32.959Z,33.98
2024-04-25T00:55:36.193Z,33.94
2024-04-25T00:56:39.496Z,34.02
2024-04-25T00:57:42.827Z,33.98
2024-04-25T00:58:45.994Z,34
2024-04-25T00:59:49.281Z,33.99
2024-04-25T01:00:52.709Z,34.03
2024-04-25T01:01:58.061Z,34.01
2024-04-25T01:03:03.532Z,34.01
2024-04-25T01:04:08.455Z,34
2024-04-25T01:05:11.797Z,33.99
2024-04-25T01:06:15.068Z,33.99
2024-04-25T01:07:19.374Z,33.97
2024-04-25T01:08:24.176Z,33.99
2024-04-25T01:09:27.399Z,33.98
2024-04-25T01:10:30.756Z,33.99
2024-04-25T01:11:34.378Z,34
2024-04-25T01:12:38.005Z,34
2024-04-25T01:13:41.300Z,34.01
2024-04-25T01:14:46.470Z,34.02
2024-04-25T01:15:51.654Z,34.01
2024-04-25T01:16:54.968Z,34.01
2024-04-25T01:17:58.398Z,34.01
2024-04-25T01:19:01.784Z,34.01
2024-04-25T01:20:10.675Z,34.01
2024-04-25T01:21:15.886Z,33.97
2024-04-25T01:22:19.007Z,33.95
2024-04-25T01:23:22.319Z,33.96
2024-04-25T01:24:27.646Z,33.99
2024-04-25T01:25:30.823Z,34
2024-04-25T01:26:34.115Z,33.99
2024-04-25T01:27:37.534Z,34
2024-04-25T01:28:40.823Z,34.01
2024-04-25T01:29:44.088Z,34.01
2024-04-25T01:30:47.487Z,34.04
2024-04-25T01:31:50.715Z,34.04
2024-04-25T01:32:56.431Z,34.04
2024-04-25T01:34:00.334Z,34.03
2024-04-25T01:35:04.031Z,34.01
2024-04-25T01:36:07.403Z,34
2024-04-25T01:37:12.570Z,34.01
2024-04-25T01:38:15.849Z,34.03
2024-04-25T01:39:21.228Z,34.02
2024-04-25T01:40:24.408Z,34.02
2024-04-25T01:41:27.760Z,34.06
2024-04-25T01:42:31.207Z,34.04
2024-04-25T01:43:34.508Z,34.05
2024-04-25T01:44:37.904Z,34.04
2024-04-25T01:45:42.802Z,34.06
2024-04-25T01:46:45.912Z,34.05
2024-04-25T01:47:49.435Z,34.06
2024-04-25T01:48:53.403Z,34.05
2024-04-25T01:49:56.790Z,34
2024-04-25T01:51:00.004Z,34.01
2024-04-25T01:52:03.298Z,34.05
2024-04-25T01:53:06.940Z,34.06
2024-04-25T01:54:10.218Z,34.08
2024-04-25T01:55:15.054Z,34.03
2024-04-25T01:56:18.293Z,34.06
2024-04-25T01:57:27.497Z,34.07
2024-04-25T01:58:30.581Z,34
2024-04-25T01:59:33.938Z,34.01
2024-04-25T02:00:39.396Z,34.02
2024-04-25T02:01:42.598Z,34.02
2024-04-25T02:02:46.391Z,34.03
2024-04-25T02:03:49.990Z,34.01
2024-04-25T02:04:53.311Z,34.02
2024-04-25T02:05:58.596Z,34.04
2024-04-25T02:07:01.850Z,34.06
2024-04-25T02:08:05.240Z,34.07
2024-04-25T02:09:08.648Z,34.08
2024-04-25T02:10:11.924Z,34.07
2024-04-25T02:11:15.458Z,34.09
2024-04-25T02:12:18.853Z,34.1
2024-04-25T02:13:21.978Z,34.09
2024-04-25T02:14:25.258Z,34.1
2024-04-25T02:15:30.093Z,34.09
2024-04-25T02:16:33.258Z,34.08
2024-04-25T02:17:38.934Z,34.08
2024-04-25T02:18:44.290Z,34.08
2024-04-25T02:19:47.815Z,34.08
2024-04-25T02:20:51.101Z,34.09
2024-04-25T02:21:56.286Z,34.04
2024-04-25T02:22:59.494Z,34.08
2024-04-25T02:24:02.751Z,34.1
2024-04-25T02:25:06.024Z,34.08
2024-04-25T02:26:09.376Z,34.12
2024-04-25T02:27:12.772Z,34.08
2024-04-25T02:28:15.974Z,34.07
2024-04-25T02:29:19.455Z,34.12
2024-04-25T02:30:22.697Z,34.1
2024-04-25T02:31:25.933Z,34.13
2024-04-25T02:32:29.392Z,34.13
2024-04-25T02:33:33.086Z,34.12
2024-04-25T02:34:37.925Z,34.14
2024-04-25T02:35:41.060Z,34.12
2024-04-25T02:36:44.264Z,34.11
2024-04-25T02:37:47.453Z,34.1
2024-04-25T02:38:50.634Z,34.14
2024-04-25T02:39:55.954Z,34.14
2024-04-25T02:40:59.310Z,34.12
2024-04-25T02:42:02.503Z,34.13
2024-04-25T02:43:05.795Z,34.12
2024-04-25T02:44:09.119Z,34.13
2024-04-25T02:45:12.447Z,34.16
2024-04-25T02:46:15.686Z,34.15
2024-04-25T02:47:19.064Z,34.15
2024-04-25T02:48:22.519Z,34.16
2024-04-25T02:49:26.150Z,34.16
2024-04-25T02:50:29.374Z,34.18
2024-04-25T02:51:34.646Z,34.17
2024-04-25T02:52:37.895Z,34.16
2024-04-25T02:53:41.051Z,34.15
2024-04-25T02:54:44.197Z,34.13
2024-04-25T02:55:47.440Z,34.18
2024-04-25T02:56:50.724Z,34.19
2024-04-25T02:57:53.933Z,34.14
2024-04-25T02:58:57.193Z,34.16
2024-04-25T03:00:01.912Z,34.18
2024-04-25T03:01:05.375Z,34.13
2024-04-25T03:02:09.156Z,34.17
2024-04-25T03:03:14.818Z,34.16
2024-04-25T03:04:18.371Z,34.13
2024-04-25T03:05:21.631Z,34.14
2024-04-25T03:06:24.971Z,34.13
2024-04-25T03:07:28.218Z,34.15
2024-04-25T03:08:31.495Z,34.17
2024-04-25T03:09:34.827Z,34.15
2024-04-25T03:10:38.023Z,34.17
2024-04-25T03:11:41.518Z,34.18
2024-04-25T03:12:44.706Z,34.15
2024-04-25T03:13:49.551Z,34.14
2024-04-25T03:14:52.792Z,34.16
2024-04-25T03:15:56.011Z,34.16
2024-04-25T03:16:59.218Z,34.19
2024-04-25T03:18:05.043Z,34.18
2024-04-25T03:19:08.856Z,34.16
2024-04-25T03:20:12.276Z,34.16
2024-04-25T03:21:15.584Z,34.16
2024-04-25T03:22:18.782Z,34.12
2024-04-25T03:23:22.052Z,34.18
2024-04-25T03:24:25.462Z,34.16
2024-04-25T03:25:28.697Z,34.17
2024-04-25T03:26:31.988Z,34.18
2024-04-25T03:27:35.344Z,34.19
2024-04-25T03:28:38.566Z,34.19
2024-04-25T03:29:43.362Z,34.19
2024-04-25T03:30:46.729Z,34.2
2024-04-25T03:31:50.232Z,34.19
2024-04-25T03:32:53.692Z,34.19
2024-04-25T03:33:59.243Z,34.19
2024-04-25T03:35:02.423Z,34.22
2024-04-25T03:36:07.724Z,34.21
2024-04-25T03:37:10.948Z,34.19
2024-04-25T03:38:15.732Z,34.2
2024-04-25T03:39:18.968Z,34.18
2024-04-25T03:40:22.121Z,34.18
2024-04-25T03:41:25.468Z,34.19
2024-04-25T03:42:28.902Z,34.2
2024-04-25T03:43:32.174Z,34.2
2024-04-25T03:44:35.607Z,34.2
2024-04-25T03:45:40.958Z,34.23
2024-04-25T03:46:44.120Z,34.2
2024-04-25T03:47:47.663Z,34.22
2024-04-25T03:48:51.464Z,34.23
2024-04-25T03:49:55.082Z,34.23
2024-04-25T03:50:58.334Z,34.22
2024-04-25T03:52:01.624Z,34.22
2024-04-25T03:53:04.818Z,34.23
2024-04-25T03:54:09.716Z,34.23
2024-04-25T03:55:14.027Z,34.2
2024-04-25T03:56:17.308Z,34.2
2024-04-25T03:57:20.466Z,34.21
2024-04-25T03:58:23.694Z,34.23
2024-04-25T03:59:26.965Z,34.25
2024-04-25T04:00:30.285Z,34.24
2024-04-25T04:01:33.491Z,34.22
2024-04-25T04:02:36.874Z,34.25
2024-04-25T04:03:40.336Z,34.24
2024-04-25T04:04:45.544Z,34.25
2024-04-25T04:05:49.276Z,34.23
2024-04-25T04:06:53.425Z,34.22
2024-04-25T04:07:56.638Z,34.21
2024-04-25T04:08:59.909Z,34.22
2024-04-25T04:10:04.800Z,34.22
2024-04-25T04:11:08.172Z,34.23
2024-04-25T04:12:17.513Z,34.23
2024-04-25T04:13:20.557Z,34.17
2024-04-25T04:14:23.816Z,34.17
2024-04-25T04:15:27.127Z,34.18
2024-04-25T04:16:30.419Z,34.18
2024-04-25T04:17:33.955Z,34.18
2024-04-25T04:18:39.346Z,34.22
2024-04-25T04:19:42.451Z,34.21
2024-04-25T04:20:45.657Z,34.2
2024-04-25T04:21:48.817Z,34.22
2024-04-25T04:22:52.011Z,34.25
2024-04-25T04:23:57.202Z,34.25
2024-04-25T04:25:00.429Z,34.26
2024-04-25T04:26:03.734Z,34.26
2024-04-25T04:27:06.913Z,34.25
2024-04-25T04:28:15.486Z,34.24
2024-04-25T04:29:18.987Z,34.21
2024-04-25T04:30:22.181Z,34.21
2024-04-25T04:31:25.473Z,34.22
2024-04-25T04:32:28.928Z,34.24
2024-04-25T04:33:32.699Z,34.25
2024-04-25T04:34:37.998Z,34.25
2024-04-25T04:35:41.251Z,34.24
2024-04-25T04:36:44.540Z,34.26
2024-04-25T04:37:47.825Z,34.27
2024-04-25T04:38:50.989Z,34.33
2024-04-25T04:39:54.274Z,34.27
2024-04-25T04:40:59.494Z,34.28
2024-04-25T04:42:02.672Z,34.34
2024-04-25T04:43:05.889Z,34.34
2024-04-25T04:44:09.244Z,34.36
2024-04-25T04:45:12.563Z,34.34
2024-04-25T04:46:15.769Z,34.3
2024-04-25T04:47:19.146Z,34.26
2024-04-25T04:48:33.902Z,34.22
2024-04-25T04:49:40.448Z,34.12
2024-04-25T04:50:43.826Z,34.17
2024-04-25T04:51:47.224Z,34.17
2024-04-25T04:52:52.544Z,34.22
2024-04-25T04:53:55.727Z,34.23
2024-04-25T04:54:58.965Z,34.25
2024-04-25T04:56:02.286Z,34.17
2024-04-25T04:57:07.016Z,34.2
2024-04-25T04:58:10.265Z,34.24
2024-04-25T04:59:13.538Z,34.28
2024-04-25T05:00:16.860Z,34.36
2024-04-25T05:01:20.122Z,34.4
2024-04-25T05:02:23.514Z,34.46
2024-04-25T05:03:26.914Z,34.44
2024-04-25T05:04:30.201Z,34.5
2024-04-25T05:05:33.443Z,34.51
2024-04-25T05:06:36.724Z,34.56
2024-04-25T05:07:39.963Z,34.49
2024-04-25T05:08:43.172Z,34.59
2024-04-25T05:09:46.544Z,34.64
2024-04-25T05:10:49.786Z,34.64
2024-04-25T05:11:53.193Z,34.72
2024-04-25T05:12:56.668Z,34.72
2024-04-25T05:14:00.935Z,34.7
2024-04-25T05:15:04.196Z,34.65
2024-04-25T05:16:07.540Z,34.65
2024-04-25T05:17:12.858Z,34.65
2024-04-25T05:18:17.694Z,34.68
2024-04-25T05:19:20.845Z,34.74
2024-04-25T05:20:24.050Z,34.71
2024-04-25T05:21:27.391Z,34.93
2024-04-25T05:22:30.647Z,34.61
2024-04-25T05:23:33.970Z,34.53
2024-04-25T05:24:37.356Z,34.62
2024-04-25T05:25:42.505Z,34.35
2024-04-25T05:26:45.717Z,34.31
2024-04-25T05:27:49.005Z,35.04
2024-04-25T05:28:54.326Z,34.82
2024-04-25T05:29:57.572Z,34.96
2024-04-25T05:31:00.816Z,34.75
2024-04-25T05:32:04.013Z,34.82
2024-04-25T05:33:07.472Z,34.37
2024-04-25T05:34:11.131Z,33.99
2024-04-25T05:35:14.511Z,34.68
2024-04-25T05:36:17.769Z,34.65
2024-04-25T05:37:20.936Z,34.42
2024-04-25T05:38:24.341Z,34.6
2024-04-25T05:39:27.654Z,34.72
2024-04-25T05:40:31.071Z,34.84
2024-04-25T05:41:34.500Z,34.72
2024-04-25T05:42:37.908Z,34.76
2024-04-25T05:43:41.122Z,34.73
2024-04-25T05:44:44.509Z,34.7
2024-04-25T05:45:47.856Z,34.64
2024-04-25T05:46:51.207Z,34.65
2024-04-25T05:47:54.798Z,34.59
2024-04-25T05:48:58.544Z,34.63
2024-04-25T05:50:04.397Z,34.58
2024-04-25T05:51:12.419Z,34.41
2024-04-25T05:52:15.619Z,34.48
2024-04-25T05:53:18.851Z,34.4
2024-04-25T05:54:24.215Z,34.39
2024-04-25T05:55:27.396Z,34.34
2024-04-25T05:56:30.776Z,34.41
2024-04-25T05:57:36.101Z,34.33
2024-04-25T05:58:39.755Z,34.36
2024-04-25T05:59:49.073Z,34.27
2024-04-25T06:00:52.333Z,34.21
2024-04-25T06:01:55.613Z,34.21
2024-04-25T06:03:04.441Z,34.15
2024-04-25T06:04:08.697Z,34.15
2024-04-25T06:05:12.051Z,34.12
2024-04-25T06:06:15.414Z,33.99
2024-04-25T06:07:18.586Z,34.04
2024-04-25T06:08:23.426Z,34.17
2024-04-25T06:09:26.599Z,34.07
2024-04-25T06:10:29.982Z,34
2024-04-25T06:11:33.521Z,33.9
2024-04-25T06:12:38.296Z,33.85
2024-04-25T06:13:41.676Z,33.86
2024-04-25T06:14:50.974Z,33.97
2024-04-25T06:15:54.261Z,33.83
2024-04-25T06:16:57.609Z,33.99
2024-04-25T06:18:02.048Z,33.99
2024-04-25T06:19:05.526Z,33.79
2024-04-25T06:20:08.749Z,33.9
2024-04-25T06:21:12.065Z,33.9
2024-04-25T06:22:15.323Z,33.99
2024-04-25T06:23:18.715Z,34.09
2024-04-25T06:24:22.037Z,34.09
2024-04-25T06:25:25.323Z,34.13
2024-04-25T06:26:28.570Z,34.16
2024-04-25T06:27:32.962Z,34.17
2024-04-25T06:28:36.208Z,34.16
2024-04-25T06:29:41.645Z,34.11
2024-04-25T06:30:44.938Z,34.1
2024-04-25T06:31:48.367Z,34.22
2024-04-25T06:32:52.005Z,34.19
2024-04-25T06:33:55.643Z,34.16
2024-04-25T06:34:58.938Z,34.17
2024-04-25T06:36:02.147Z,34.21
2024-04-25T06:37:05.416Z,34.18
2024-04-25T06:38:08.723Z,34.22
2024-04-25T06:39:12.034Z,34.24
2024-04-25T06:40:15.398Z,34.26
2024-04-25T06:41:18.813Z,34.25
2024-04-25T06:42:22.140Z,34.13
2024-04-25T06:43:25.322Z,34.01
2024-04-25T06:44:37.187Z,33.49
2024-04-25T06:45:43.069Z,32.96
2024-04-25T06:46:46.457Z,32.62
2024-04-25T06:47:49.953Z,32.51
2024-04-25T06:48:55.235Z,32.41
2024-04-25T06:49:58.978Z,32.59
2024-04-25T06:51:02.161Z,32.6
2024-04-25T06:52:05.593Z,32.59
2024-04-25T06:53:08.864Z,32.63
2024-04-25T06:54:12.126Z,32.78
2024-04-25T06:55:15.373Z,32.85
2024-04-25T06:56:18.660Z,32.92
2024-04-25T06:57:21.962Z,32.94
2024-04-25T06:58:25.240Z,32.94
2024-04-25T06:59:28.498Z,32.95
2024-04-25T07:00:31.880Z,32.93
2024-04-25T07:01:35.219Z,33.02
2024-04-25T07:02:38.525Z,33.09
2024-04-25T07:03:43.559Z,33.08
2024-04-25T07:04:47.125Z,33.09
2024-04-25T07:05:50.495Z,33.1
2024-04-25T07:06:53.876Z,33.15
2024-04-25T07:07:57.089Z,33.22
2024-04-25T07:09:00.424Z,33.23
2024-04-25T07:10:09.624Z,33.29
2024-04-25T07:11:14.860Z,33.28
2024-04-25T07:12:18.024Z,33.27
2024-04-25T07:13:21.545Z,33.3
2024-04-25T07:14:24.860Z,33.26
2024-04-25T07:15:28.506Z,33.31
2024-04-25T07:16:33.782Z,33.31
2024-04-25T07:17:37.345Z,33.3
2024-04-25T07:18:40.769Z,33.33
2024-04-25T07:19:44.214Z,33.42
2024-04-25T07:20:47.554Z,33.37
2024-04-25T07:21:50.854Z,33.44
2024-04-25T07:22:54.106Z,33.45
2024-04-25T07:24:01.617Z,33.52
2024-04-25T07:25:09.425Z,33.49
2024-04-25T07:26:12.649Z,33.44
2024-04-25T07:27:16.016Z,33.41
2024-04-25T07:28:19.130Z,33.49
2024-04-25T07:29:22.430Z,33.51
2024-04-25T07:30:25.751Z,33.57
2024-04-25T07:31:29.000Z,33.59
2024-04-25T07:32:32.398Z,33.57
2024-04-25T07:33:36.106Z,33.64
2024-04-25T07:34:39.649Z,33.59
2024-04-25T07:35:44.935Z,33.51
2024-04-25T07:36:48.579Z,33.44
2024-04-25T07:37:51.778Z,33.55
2024-04-25T07:38:55.151Z,33.65
2024-04-25T07:39:58.724Z,33.53
2024-04-25T07:41:01.951Z,33.5
2024-04-25T07:42:05.261Z,33.43
2024-04-25T07:43:10.553Z,33.45
2024-04-25T07:44:15.959Z,33.49
2024-04-25T07:45:19.663Z,33.44
2024-04-25T07:46:22.936Z,33.52
2024-04-25T07:47:26.350Z,33.5
2024-04-25T07:48:29.973Z,33.5
2024-04-25T07:49:33.366Z,33.51
2024-04-25T07:50:36.688Z,33.5
2024-04-25T07:51:39.874Z,33.49
2024-04-25T07:52:43.099Z,33.48
2024-04-25T07:53:48.560Z,33.57
2024-04-25T07:54:51.989Z,33.48
2024-04-25T07:55:55.254Z,33.63
2024-04-25T07:56:58.480Z,33.56
2024-04-25T07:58:01.672Z,33.78
2024-04-25T07:59:04.951Z,33.78
2024-04-25T08:00:08.269Z,33.87
2024-04-25T08:01:11.663Z,33.9
2024-04-25T08:02:15.093Z,33.96
2024-04-25T08:03:18.926Z,34.01
2024-04-25T08:04:22.265Z,34.02
2024-04-25T08:05:25.621Z,34.07
2024-04-25T08:06:29.083Z,33.97
2024-04-25T08:07:32.331Z,33.94
2024-04-25T08:08:35.667Z,33.91
2024-04-25T08:09:38.906Z,33.92
2024-04-25T08:10:43.674Z,33.9
2024-04-25T08:11:47.314Z,33.78
2024-04-25T08:12:50.861Z,33.72
2024-04-25T08:13:54.105Z,33.7
2024-04-25T08:14:58.290Z,33.75
2024-04-25T08:16:01.735Z,33.69
2024-04-25T08:17:05.035Z,33.68
2024-04-25T08:18:10.696Z,33.64
2024-04-25T08:19:14.142Z,33.58
2024-04-25T08:20:17.385Z,33.55
2024-04-25T08:21:20.597Z,33.42
2024-04-25T08:22:25.839Z,33.39
2024-04-25T08:23:29.164Z,33.46
2024-04-25T08:24:34.478Z,33.49
2024-04-25T08:25:37.652Z,33.47
2024-04-25T08:26:40.930Z,33.55
2024-04-25T08:27:44.248Z,33.55
2024-04-25T08:28:49.446Z,33.76
2024-04-25T08:29:52.713Z,33.72
2024-04-25T08:30:56.051Z,33.65
2024-04-25T08:31:59.341Z,33.66
2024-04-25T08:33:02.887Z,33.63
2024-04-25T08:34:08.883Z,33.75
2024-04-25T08:35:14.375Z,33.6
2024-04-25T08:36:17.533Z,33.59
2024-04-25T08:37:20.885Z,33.59
2024-04-25T08:38:24.347Z,33.58
2024-04-25T08:39:27.791Z,33.39
2024-04-25T08:40:32.767Z,33.48
2024-04-25T08:41:37.543Z,33.58
2024-04-25T08:42:40.715Z,33.56
2024-04-25T08:43:44.024Z,33.14
2024-04-25T08:44:47.357Z,33.33
2024-04-25T08:45:50.943Z,33.4
2024-04-25T08:46:54.269Z,33.47
2024-04-25T08:47:57.814Z,33.54
2024-04-25T08:49:03.445Z,33.52
2024-04-25T08:50:06.713Z,33.6
2024-04-25T08:51:09.992Z,33.56
2024-04-25T08:52:15.278Z,33.65
2024-04-25T08:53:18.640Z,33.64
2024-04-25T08:54:22.007Z,33.57
2024-04-25T08:55:27.256Z,33.46
2024-04-25T08:56:32.610Z,33.41
2024-04-25T08:57:37.959Z,33.35
2024-04-25T08:58:43.063Z,33.43
2024-04-25T08:59:46.358Z,33.68
2024-04-25T09:00:49.741Z,33.56
2024-04-25T09:01:55.069Z,33.61
2024-04-25T09:02:58.561Z,33.9
2024-04-25T09:04:02.135Z,33.83
2024-04-25T09:05:05.486Z,33.77
2024-04-25T09:06:08.765Z,33.77
2024-04-25T09:07:11.999Z,33.78
2024-04-25T09:08:15.399Z,33.35
2024-04-25T09:09:18.668Z,33.23
2024-04-25T09:10:21.870Z,32.96
2024-04-25T09:11:25.301Z,33
2024-04-25T09:12:28.938Z,32.86
2024-04-25T09:13:32.327Z,32.85
2024-04-25T09:14:35.790Z,32.71
2024-04-25T09:15:38.952Z,32.6
2024-04-25T09:16:44.278Z,32.52
2024-04-25T09:17:47.762Z,32.29
2024-04-25T09:18:51.213Z,32.18
2024-04-25T09:19:54.511Z,31.94
2024-04-25T09:20:57.825Z,30.75
2024-04-25T09:22:01.129Z,30.19
2024-04-25T09:23:07.063Z,30.01
2024-04-25T09:24:10.264Z,29.74
2024-04-25T09:25:13.479Z,29.53
2024-04-25T09:26:18.806Z,29.21
2024-04-25T09:27:23.754Z,29.3
2024-04-25T09:28:26.909Z,29.26
2024-04-25T09:29:30.262Z,28.99
2024-04-25T09:30:33.607Z,28.67
2024-04-25T09:31:39.372Z,28.41
2024-04-25T09:32:42.846Z,28.34
2024-04-25T09:33:46.770Z,28.23
2024-04-25T09:34:50.265Z,28.16
2024-04-25T09:35:53.734Z,28.46
2024-04-25T09:36:57.208Z,28.47
2024-04-25T09:38:00.542Z,28.39
2024-04-25T09:39:03.870Z,28.59
2024-04-25T09:40:09.149Z,28.64
2024-04-25T09:41:12.455Z,28.7
2024-04-25T09:42:15.775Z,28.51
2024-04-25T09:43:18.936Z,28.56
2024-04-25T09:44:22.388Z,28.67
2024-04-25T09:45:25.744Z,28.54
2024-04-25T09:46:28.981Z,28.47
2024-04-25T09:47:32.527Z,28.27
2024-04-25T09:48:38.012Z,28.63
2024-04-25T09:49:41.111Z,28.35
2024-04-25T09:50:44.412Z,28.39
2024-04-25T09:51:47.794Z,28.21
2024-04-25T09:52:51.002Z,28.42
2024-04-25T09:53:54.410Z,28.2
2024-04-25T09:54:57.632Z,27.88
2024-04-25T09:56:02.811Z,27.84
2024-04-25T09:57:06.000Z,27.93
2024-04-25T09:58:09.247Z,27.85
2024-04-25T09:59:12.493Z,27.83
2024-04-25T10:00:15.740Z,27.95
2024-04-25T10:01:18.915Z,27.81
2024-04-25T10:02:22.237Z,27.8
2024-04-25T10:03:25.850Z,27.96
2024-04-25T10:04:33.223Z,27.96
2024-04-25T10:05:37.710Z,28.22
2024-04-25T10:06:40.902Z,28.24
2024-04-25T10:07:44.067Z,28.14
2024-04-25T10:08:47.462Z,28.11
2024-04-25T10:09:50.802Z,28.29
2024-04-25T10:10:54.195Z,28.39
2024-04-25T10:11:57.639Z,28.77
2024-04-25T10:13:01.083Z,28.68
2024-04-25T10:14:04.436Z,28.74
2024-04-25T10:15:08.234Z,28.92
2024-04-25T10:16:11.549Z,29.08
2024-04-25T10:17:14.887Z,29.08
2024-04-25T10:18:18.371Z,29.08
2024-04-25T10:19:21.657Z,29.13
2024-04-25T10:20:27.091Z,29.11
2024-04-25T10:21:30.382Z,29.23
2024-04-25T10:22:39.336Z,29.24
2024-04-25T10:23:44.671Z,29.28
2024-04-25T10:24:47.954Z,29.34
2024-04-25T10:25:51.139Z,29.39
2024-04-25T10:26:54.441Z,29.51
2024-04-25T10:27:57.826Z,29.61
2024-04-25T10:29:05.375Z,29.76
2024-04-25T10:30:09.055Z,29.83
2024-04-25T10:31:12.338Z,29.81
2024-04-25T10:32:15.699Z,29.86
2024-04-25T10:33:19.228Z,29.82
2024-04-25T10:34:22.629Z,29.81
2024-04-25T10:35:27.914Z,29.78
2024-04-25T10:36:31.125Z,29.77
2024-04-25T10:37:34.366Z,29.89
2024-04-25T10:38:41.856Z,29.89
2024-04-25T10:39:47.894Z,29.96
2024-04-25T10:40:51.190Z,29.99
2024-04-25T10:41:54.537Z,30.17
2024-04-25T10:43:03.707Z,30.41
2024-04-25T10:44:09.106Z,30.54
2024-04-25T10:45:12.439Z,30.55
2024-04-25T10:46:17.663Z,30.57
2024-04-25T10:47:27.063Z,30.88
2024-04-25T10:48:30.903Z,30.89
2024-04-25T10:49:34.542Z,31
2024-04-25T10:50:37.741Z,31.07
2024-04-25T10:51:41.082Z,31.16
2024-04-25T10:52:44.304Z,31.25
2024-04-25T10:53:47.649Z,31.24
2024-04-25T10:54:50.896Z,31.25
2024-04-25T10:55:56.704Z,31.23
2024-04-25T10:56:59.868Z,31.22
2024-04-25T10:58:03.126Z,31.23
2024-04-25T10:59:06.339Z,31.24
2024-04-25T11:00:09.581Z,31.32
2024-04-25T11:01:12.908Z,31.26
2024-04-25T11:02:16.572Z,31.31
2024-04-25T11:03:20.106Z,31.29
2024-04-25T11:04:23.472Z,31.32
2024-04-25T11:05:26.710Z,31.31
2024-04-25T11:06:30.035Z,31.33
2024-04-25T11:07:34.881Z,31.38
2024-04-25T11:08:38.138Z,31.37
2024-04-25T11:09:41.437Z,31.37
2024-04-25T11:10:44.646Z,31.39
2024-04-25T11:11:48.004Z,31.36
2024-04-25T11:12:53.448Z,31.38
2024-04-25T11:13:58.665Z,31.42
2024-04-25T11:15:03.909Z,31.35
2024-04-25T11:16:07.111Z,31.35
2024-04-25T11:17:10.321Z,31.34
2024-04-25T11:18:25.172Z,31.33
2024-04-25T11:19:28.702Z,31.25
2024-04-25T11:20:32.355Z,31.22
2024-04-25T11:21:37.952Z,31.27
2024-04-25T11:22:51.652Z,31.27
2024-04-25T11:23:54.131Z,31.23
2024-04-25T11:24:57.284Z,31.28
2024-04-25T11:26:00.457Z,31.36
2024-04-25T11:27:03.943Z,31.38
2024-04-25T11:28:07.292Z,31.45
2024-04-25T11:29:10.601Z,31.52
2024-04-25T11:30:13.947Z,31.56
2024-04-25T11:31:17.245Z,31.54
2024-04-25T11:32:20.525Z,31.62
2024-04-25T11:33:27.594Z,31.61
2024-04-25T11:34:31.143Z,31.97
2024-04-25T11:35:34.702Z,31.56
2024-04-25T11:36:37.973Z,31.63
2024-04-25T11:37:41.202Z,31.66
2024-04-25T11:38:44.516Z,31.68
2024-04-25T11:39:47.847Z,31.72
2024-04-25T11:40:51.081Z,31.74
2024-04-25T11:41:54.461Z,31.73
2024-04-25T11:42:57.774Z,31.81
2024-04-25T11:44:01.119Z,31.5
2024-04-25T11:45:04.324Z,31.32
2024-04-25T11:46:07.695Z,31.13
2024-04-25T11:47:11.010Z,31.38
2024-04-25T11:48:14.641Z,31.27
2024-04-25T11:49:18.019Z,31.05
2024-04-25T11:50:21.198Z,31.1
2024-04-25T11:51:26.517Z,30.93
2024-04-25T11:52:31.354Z,30.86
2024-04-25T11:53:34.604Z,30.85
2024-04-25T11:54:37.750Z,31.21
2024-04-25T11:55:41.076Z,31.3
2024-04-25T11:56:44.384Z,31.34
2024-04-25T11:57:47.765Z,31.39
2024-04-25T11:58:51.047Z,31.46
2024-04-25T11:59:54.525Z,31.54
2024-04-25T12:00:59.505Z,31.56
2024-04-25T12:02:03.148Z,31.59
2024-04-25T12:03:06.614Z,31.72
2024-04-25T12:04:10.103Z,31.77
2024-04-25T12:05:13.449Z,31.82
2024-04-25T12:06:16.711Z,31.61
2024-04-25T12:07:21.390Z,30.95
2024-04-25T12:08:24.647Z,30.44
2024-04-25T12:09:29.562Z,30.2
2024-04-25T12:10:34.765Z,29.51
2024-04-25T12:11:40.138Z,29.45
2024-04-25T12:12:43.524Z,29.26
2024-04-25T12:13:46.834Z,29.38
2024-04-25T12:14:50.230Z,29.03
2024-04-25T12:15:53.629Z,28.88
2024-04-25T12:16:58.364Z,28.91
2024-04-25T12:18:01.773Z,29.49
2024-04-25T12:19:05.308Z,28.72
2024-04-25T12:20:24.142Z,28.76
2024-04-25T12:21:27.072Z,27.98
2024-04-25T12:22:31.775Z,27.69
2024-04-25T12:23:37.161Z,27.97
2024-04-25T12:24:40.327Z,28.44
2024-04-25T12:25:43.508Z,28.31
2024-04-25T12:26:46.930Z,28.17
2024-04-25T12:27:50.266Z,28.49
2024-04-25T12:28:53.489Z,28.34
2024-04-25T12:29:58.799Z,29.03
2024-04-25T12:31:01.954Z,29.73
2024-04-25T12:32:05.188Z,29.88
2024-04-25T12:33:08.943Z,29.43
2024-04-25T12:34:14.889Z,29.3
2024-04-25T12:35:18.311Z,29.4
2024-04-25T12:36:23.625Z,29.1
2024-04-25T12:37:32.846Z,29
2024-04-25T12:38:37.588Z,29.03
2024-04-25T12:39:40.711Z,28.81
2024-04-25T12:40:43.913Z,28.95
2024-04-25T12:41:47.358Z,28.81
2024-04-25T12:42:50.704Z,28.59
2024-04-25T12:43:54.121Z,28.26
2024-04-25T12:44:57.569Z,28.15
2024-04-25T12:46:04.389Z,27.93
2024-04-25T12:47:07.595Z,27.99
2024-04-25T12:48:11.135Z,28.36
2024-04-25T12:49:14.701Z,28.36
2024-04-25T12:50:22.046Z,28.6
2024-04-25T12:51:25.245Z,27.15
2024-04-25T12:52:28.469Z,28.55
2024-04-25T12:53:31.736Z,27.2
2024-04-25T12:54:35.129Z,28.32
2024-04-25T12:55:38.314Z,28.36
2024-04-25T12:56:44.033Z,28.41
2024-04-25T12:57:53.324Z,28.69
2024-04-25T12:58:56.587Z,28.79
2024-04-25T13:00:01.876Z,28.78
2024-04-25T13:01:05.559Z,29
2024-04-25T13:02:09.073Z,28.92
2024-04-25T13:03:12.379Z,29.12
2024-04-25T13:04:15.725Z,29.25
2024-04-25T13:05:19.044Z,29.22
2024-04-25T13:06:22.371Z,29.15
2024-04-25T13:07:25.666Z,29.06
2024-04-25T13:08:29.014Z,29.13
2024-04-25T13:09:32.384Z,29.07
2024-04-25T13:10:35.676Z,29.05
2024-04-25T13:11:38.988Z,29.12
2024-04-25T13:12:42.226Z,29.02
2024-04-25T13:13:45.512Z,28.99
2024-04-25T13:14:48.877Z,28.73
2024-04-25T13:15:52.227Z,29.06
2024-04-25T13:16:55.540Z,28.98
2024-04-25T13:17:58.978Z,29.05
2024-04-25T13:19:02.630Z,29.12
2024-04-25T13:20:06.070Z,29.13
2024-04-25T13:21:09.478Z,29.15
2024-04-25T13:22:12.884Z,29.25
2024-04-25T13:23:16.146Z,29.35
2024-04-25T13:24:21.494Z,29.44
2024-04-25T13:25:24.638Z,29.42
2024-04-25T13:26:27.973Z,29.45
2024-04-25T13:27:32.908Z,29.44
2024-04-25T13:28:36.075Z,29.45
2024-04-25T13:29:39.245Z,29.48
2024-04-25T13:30:42.585Z,29.38
2024-04-25T13:31:45.856Z,29.35
2024-04-25T13:32:52.964Z,29.28
2024-04-25T13:33:58.788Z,29.23
2024-04-25T13:35:02.435Z,29.34
2024-04-25T13:36:05.757Z,29.29
2024-04-25T13:37:09.120Z,29.26
2024-04-25T13:38:12.521Z,29.4
2024-04-25T13:39:15.728Z,29.42
2024-04-25T13:40:19.178Z,29.4
2024-04-25T13:41:24.577Z,29.41
2024-04-25T13:42:27.824Z,29.33
2024-04-25T13:43:31.081Z,29.71
2024-04-25T13:44:34.354Z,29.69
2024-04-25T13:45:37.506Z,29.65
2024-04-25T13:46:40.686Z,29.74